sensor_id;sensor_type;location;lat;lon;timestamp;pressure;altitude;pressure_sealevel;temperature;humidity
6349;BME280;3207;42.648;23.406;2022-09-12T00:00:39;100129.69;;;19.90;73.98
6349;BME280;3207;42.648;23.406;2022-09-12T00:03:05;100120.72;;;19.91;73.61
6349;BME280;3207;42.648;23.406;2022-09-12T00:05:33;100124.69;;;19.95;73.54
6349;BME280;3207;42.648;23.406;2022-09-12T00:08:00;100129.50;;;19.99;73.21
6349;BME280;3207;42.648;23.406;2022-09-12T00:10:27;100119.34;;;20.03;72.83
6349;BME280;3207;42.648;23.406;2022-09-12T00:12:55;100118.19;;;20.05;72.42
6349;BME280;3207;42.648;23.406;2022-09-12T00:15:22;100121.66;;;20.06;72.32
6349;BME280;3207;42.648;23.406;2022-09-12T00:17:48;100112.22;;;20.03;72.08
6349;BME280;3207;42.648;23.406;2022-09-12T00:20:15;100127.97;;;20.05;71.74
6349;BME280;3207;42.648;23.406;2022-09-12T00:22:42;100112.41;;;19.94;71.52
6349;BME280;3207;42.648;23.406;2022-09-12T00:25:08;100128.00;;;19.97;71.55
6349;BME280;3207;42.648;23.406;2022-09-12T00:27:36;100115.06;;;19.94;71.71
6349;BME280;3207;42.648;23.406;2022-09-12T00:30:05;100114.41;;;19.92;71.68
6349;BME280;3207;42.648;23.406;2022-09-12T00:34:59;100117.91;;;19.84;71.97
6349;BME280;3207;42.648;23.406;2022-09-12T00:37:27;100115.44;;;19.74;72.46
6349;BME280;3207;42.648;23.406;2022-09-12T00:39:56;100100.84;;;19.62;73.10
6349;BME280;3207;42.648;23.406;2022-09-12T00:42:22;100097.72;;;19.59;73.31
6349;BME280;3207;42.648;23.406;2022-09-12T00:44:55;100107.81;;;19.55;74.13
6349;BME280;3207;42.648;23.406;2022-09-12T00:47:26;100105.84;;;19.49;74.45
6349;BME280;3207;42.648;23.406;2022-09-12T00:50:02;100108.44;;;19.41;75.18
6349;BME280;3207;42.648;23.406;2022-09-12T00:52:34;100106.13;;;19.30;75.78
6349;BME280;3207;42.648;23.406;2022-09-12T00:55:07;100102.13;;;19.18;76.43
6349;BME280;3207;42.648;23.406;2022-09-12T00:57:40;100104.78;;;19.10;77.00
6349;BME280;3207;42.648;23.406;2022-09-12T01:00:11;100104.13;;;19.08;77.09
6349;BME280;3207;42.648;23.406;2022-09-12T01:02:42;100101.81;;;19.05;77.03
6349;BME280;3207;42.648;23.406;2022-09-12T01:05:10;100101.81;;;19.05;76.89
6349;BME280;3207;42.648;23.406;2022-09-12T01:07:38;100098.81;;;18.99;77.07
6349;BME280;3207;42.648;23.406;2022-09-12T01:10:07;100100.97;;;18.96;76.96
6349;BME280;3207;42.648;23.406;2022-09-12T01:12:37;100095.50;;;18.97;76.88
6349;BME280;3207;42.648;23.406;2022-09-12T01:15:05;100098.13;;;18.97;76.68
6349;BME280;3207;42.648;23.406;2022-09-12T01:17:39;100083.06;;;18.98;76.34
6349;BME280;3207;42.648;23.406;2022-09-12T01:20:34;100089.38;;;18.97;75.98
6349;BME280;3207;42.648;23.406;2022-09-12T01:23:43;100086.22;;;18.93;75.38
6349;BME280;3207;42.648;23.406;2022-09-12T01:26:32;100078.59;;;18.90;74.63
6349;BME280;3207;42.648;23.406;2022-09-12T01:29:16;100087.84;;;18.86;74.61
6349;BME280;3207;42.648;23.406;2022-09-12T01:31:50;100085.38;;;18.85;74.59
6349;BME280;3207;42.648;23.406;2022-09-12T01:34:23;100085.72;;;18.82;74.67
6349;BME280;3207;42.648;23.406;2022-09-12T01:36:59;100083.53;;;18.77;74.89
6349;BME280;3207;42.648;23.406;2022-09-12T01:39:37;100082.22;;;18.73;75.00
6349;BME280;3207;42.648;23.406;2022-09-12T01:42:10;100075.88;;;18.66;75.24
6349;BME280;3207;42.648;23.406;2022-09-12T01:44:47;100081.53;;;18.63;75.58
6349;BME280;3207;42.648;23.406;2022-09-12T01:47:21;100077.38;;;18.60;75.96
6349;BME280;3207;42.648;23.406;2022-09-12T01:49:56;100079.19;;;18.60;76.07
6349;BME280;3207;42.648;23.406;2022-09-12T01:52:27;100083.81;;;18.58;76.36
6349;BME280;3207;42.648;23.406;2022-09-12T01:54:59;100079.47;;;18.57;76.37
6349;BME280;3207;42.648;23.406;2022-09-12T01:57:31;100063.22;;;18.44;76.65
6349;BME280;3207;42.648;23.406;2022-09-12T02:00:04;100075.00;;;18.49;76.82
6349;BME280;3207;42.648;23.406;2022-09-12T02:02:35;100059.94;;;18.42;77.06
6349;BME280;3207;42.648;23.406;2022-09-12T02:05:07;100078.78;;;18.47;77.04
6349;BME280;3207;42.648;23.406;2022-09-12T02:07:37;100074.63;;;18.44;76.79
6349;BME280;3207;42.648;23.406;2022-09-12T02:10:09;100074.16;;;18.41;76.42
6349;BME280;3207;42.648;23.406;2022-09-12T02:12:47;100078.59;;;18.40;75.94
6349;BME280;3207;42.648;23.406;2022-09-12T02:15:18;100067.81;;;18.34;75.55
6349;BME280;3207;42.648;23.406;2022-09-12T02:17:49;100075.75;;;18.34;75.41
6349;BME280;3207;42.648;23.406;2022-09-12T02:20:19;100073.44;;;18.31;75.06
6349;BME280;3207;42.648;23.406;2022-09-12T02:22:49;100066.66;;;18.28;75.23
6349;BME280;3207;42.648;23.406;2022-09-12T02:25:19;100065.13;;;18.25;75.38
6349;BME280;3207;42.648;23.406;2022-09-12T02:27:48;100060.00;;;18.24;75.94
6349;BME280;3207;42.648;23.406;2022-09-12T02:30:16;100049.06;;;18.11;77.02
6349;BME280;3207;42.648;23.406;2022-09-12T02:32:54;100070.41;;;18.17;78.20
6349;BME280;3207;42.648;23.406;2022-09-12T02:35:31;100066.91;;;18.09;79.00
6349;BME280;3207;42.648;23.406;2022-09-12T02:38:04;100064.88;;;18.03;79.96
6349;BME280;3207;42.648;23.406;2022-09-12T02:40:32;100063.16;;;17.93;81.03
6349;BME280;3207;42.648;23.406;2022-09-12T02:43:00;100054.38;;;17.85;81.43
6349;BME280;3207;42.648;23.406;2022-09-12T02:45:28;100063.25;;;17.76;82.05
6349;BME280;3207;42.648;23.406;2022-09-12T02:48:01;100067.16;;;17.72;82.55
6349;BME280;3207;42.648;23.406;2022-09-12T02:50:30;100073.44;;;17.71;83.52
6349;BME280;3207;42.648;23.406;2022-09-12T02:52:57;100062.69;;;17.64;83.60
6349;BME280;3207;42.648;23.406;2022-09-12T02:55:29;100073.78;;;17.68;83.51
6349;BME280;3207;42.648;23.406;2022-09-12T02:57:57;100072.25;;;17.65;83.63
6349;BME280;3207;42.648;23.406;2022-09-12T03:00:24;100067.13;;;17.64;83.44
6349;BME280;3207;42.648;23.406;2022-09-12T03:03:16;100055.84;;;17.62;83.74
6349;BME280;3207;42.648;23.406;2022-09-12T03:05:51;100064.59;;;17.62;83.51
6349;BME280;3207;42.648;23.406;2022-09-12T03:08:39;100066.41;;;17.62;83.51
6349;BME280;3207;42.648;23.406;2022-09-12T03:11:24;100067.41;;;17.61;83.59
6349;BME280;3207;42.648;23.406;2022-09-12T03:14:02;100055.50;;;17.56;83.80
6349;BME280;3207;42.648;23.406;2022-09-12T03:16:40;100074.69;;;17.59;83.86
6349;BME280;3207;42.648;23.406;2022-09-12T03:19:17;100080.78;;;17.59;84.01
6349;BME280;3207;42.648;23.406;2022-09-12T03:21:53;100057.41;;;17.46;83.60
6349;BME280;3207;42.648;23.406;2022-09-12T03:24:28;100071.66;;;17.53;83.52
6349;BME280;3207;42.648;23.406;2022-09-12T03:27:05;100075.56;;;17.49;83.39
6349;BME280;3207;42.648;23.406;2022-09-12T03:29:36;100069.25;;;17.42;83.55
6349;BME280;3207;42.648;23.406;2022-09-12T03:32:04;100075.53;;;17.41;83.91
6349;BME280;3207;42.648;23.406;2022-09-12T03:34:33;100078.16;;;17.41;84.03
6349;BME280;3207;42.648;23.406;2022-09-12T03:37:00;100077.47;;;17.39;83.98
6349;BME280;3207;42.648;23.406;2022-09-12T03:39:27;100069.56;;;17.39;83.78
6349;BME280;3207;42.648;23.406;2022-09-12T03:41:54;100077.34;;;17.41;84.09
6349;BME280;3207;42.648;23.406;2022-09-12T03:44:21;100079.16;;;17.40;84.17
6349;BME280;3207;42.648;23.406;2022-09-12T03:46:48;100078.31;;;17.40;84.16
6349;BME280;3207;42.648;23.406;2022-09-12T03:49:15;100080.13;;;17.39;84.16
6349;BME280;3207;42.648;23.406;2022-09-12T03:51:44;100076.84;;;17.37;84.56
6349;BME280;3207;42.648;23.406;2022-09-12T03:54:11;100075.16;;;17.36;84.66
6349;BME280;3207;42.648;23.406;2022-09-12T03:56:38;100070.88;;;17.35;84.55
6349;BME280;3207;42.648;23.406;2022-09-12T03:59:06;100077.13;;;17.34;84.88
6349;BME280;3207;42.648;23.406;2022-09-12T04:01:33;100082.56;;;17.33;84.81
6349;BME280;3207;42.648;23.406;2022-09-12T04:04:02;100091.31;;;17.33;84.72
6349;BME280;3207;42.648;23.406;2022-09-12T04:06:28;100089.66;;;17.32;84.78
6349;BME280;3207;42.648;23.406;2022-09-12T04:08:57;100045.00;;;17.03;84.83
6349;BME280;3207;42.648;23.406;2022-09-12T04:11:23;100091.63;;;17.30;85.13
6349;BME280;3207;42.648;23.406;2022-09-12T04:13:50;100095.25;;;17.29;85.15
6349;BME280;3207;42.648;23.406;2022-09-12T04:16:17;100093.56;;;17.28;84.72
6349;BME280;3207;42.648;23.406;2022-09-12T04:18:45;100097.19;;;17.27;84.55
6349;BME280;3207;42.648;23.406;2022-09-12T04:21:13;100090.59;;;17.23;84.51
6349;BME280;3207;42.648;23.406;2022-09-12T04:23:41;100091.13;;;17.27;83.99
6349;BME280;3207;42.648;23.406;2022-09-12T04:26:10;100096.41;;;17.27;83.72
6349;BME280;3207;42.648;23.406;2022-09-12T04:28:38;100094.75;;;17.26;82.90
6349;BME280;3207;42.648;23.406;2022-09-12T04:31:07;100092.25;;;17.24;83.03
6349;BME280;3207;42.648;23.406;2022-09-12T04:33:35;100109.91;;;17.24;82.67
6349;BME280;3207;42.648;23.406;2022-09-12T04:36:03;100104.78;;;17.22;82.40
6349;BME280;3207;42.648;23.406;2022-09-12T04:38:31;100095.03;;;17.23;82.01
6349;BME280;3207;42.648;23.406;2022-09-12T04:40:58;100101.97;;;17.24;82.05
6349;BME280;3207;42.648;23.406;2022-09-12T04:43:26;100095.72;;;17.25;82.17
6349;BME280;3207;42.648;23.406;2022-09-12T04:45:53;100098.22;;;17.26;81.99
6349;BME280;3207;42.648;23.406;2022-09-12T04:48:20;100101.50;;;17.28;81.94
6349;BME280;3207;42.648;23.406;2022-09-12T04:50:47;100104.97;;;17.29;81.68
6349;BME280;3207;42.648;23.406;2022-09-12T04:53:13;100100.53;;;17.29;81.85
6349;BME280;3207;42.648;23.406;2022-09-12T04:55:40;100105.81;;;17.29;82.02
6349;BME280;3207;42.648;23.406;2022-09-12T04:58:07;100106.34;;;17.33;82.40
6349;BME280;3207;42.648;23.406;2022-09-12T05:00:35;100108.53;;;17.37;82.42
6349;BME280;3207;42.648;23.406;2022-09-12T05:03:02;100118.66;;;17.42;82.55
6349;BME280;3207;42.648;23.406;2022-09-12T05:05:29;100112.91;;;17.46;82.59
6349;BME280;3207;42.648;23.406;2022-09-12T05:07:55;100118.69;;;17.50;82.82
6349;BME280;3207;42.648;23.406;2022-09-12T05:10:22;100123.69;;;17.53;83.72
6349;BME280;3207;42.648;23.406;2022-09-12T05:12:49;100128.44;;;17.49;84.42
6349;BME280;3207;42.648;23.406;2022-09-12T05:15:16;100133.72;;;17.49;84.92
6349;BME280;3207;42.648;23.406;2022-09-12T05:17:44;100136.06;;;17.52;85.52
6349;BME280;3207;42.648;23.406;2022-09-12T05:20:11;100140.09;;;17.56;85.82
6349;BME280;3207;42.648;23.406;2022-09-12T05:22:38;100148.38;;;17.62;86.27
6349;BME280;3207;42.648;23.406;2022-09-12T05:25:06;100145.81;;;17.70;86.07
6349;BME280;3207;42.648;23.406;2022-09-12T05:27:42;100151.53;;;17.83;85.62
6349;BME280;3207;42.648;23.406;2022-09-12T05:30:10;100148.03;;;18.00;85.73
6349;BME280;3207;42.648;23.406;2022-09-12T05:32:37;100152.06;;;18.12;85.16
6349;BME280;3207;42.648;23.406;2022-09-12T05:35:06;100152.47;;;18.25;84.15
6349;BME280;3207;42.648;23.406;2022-09-12T05:37:32;100155.34;;;18.32;83.83
6349;BME280;3207;42.648;23.406;2022-09-12T05:39:59;100154.88;;;18.45;83.14
6349;BME280;3207;42.648;23.406;2022-09-12T05:42:29;100151.63;;;18.51;82.62
6349;BME280;3207;42.648;23.406;2022-09-12T05:44:56;100165.63;;;18.77;81.47
6349;BME280;3207;42.648;23.406;2022-09-12T05:47:23;100159.88;;;19.56;79.89
6349;BME280;3207;42.648;23.406;2022-09-12T05:49:50;100156.53;;;21.51;73.41
6349;BME280;3207;42.648;23.406;2022-09-12T05:52:18;100164.97;;;23.95;64.24
6349;BME280;3207;42.648;23.406;2022-09-12T05:54:47;100172.53;;;26.35;55.55
6349;BME280;3207;42.648;23.406;2022-09-12T05:57:13;100171.41;;;28.26;48.40
6349;BME280;3207;42.648;23.406;2022-09-12T05:59:40;100180.94;;;30.08;42.63
6349;BME280;3207;42.648;23.406;2022-09-12T06:02:08;100194.38;;;31.80;38.29
6349;BME280;3207;42.648;23.406;2022-09-12T06:04:35;100194.69;;;33.48;34.30
6349;BME280;3207;42.648;23.406;2022-09-12T06:07:02;100202.47;;;34.97;31.40
6349;BME280;3207;42.648;23.406;2022-09-12T06:09:30;100199.53;;;36.51;29.26
6349;BME280;3207;42.648;23.406;2022-09-12T06:11:57;100211.56;;;37.87;27.09
6349;BME280;3207;42.648;23.406;2022-09-12T06:14:24;100209.03;;;38.96;25.08
6349;BME280;3207;42.648;23.406;2022-09-12T06:16:51;100210.69;;;40.00;23.65
6349;BME280;3207;42.648;23.406;2022-09-12T06:19:20;100208.56;;;41.06;22.82
6349;BME280;3207;42.648;23.406;2022-09-12T06:21:48;100221.06;;;41.93;21.18
6349;BME280;3207;42.648;23.406;2022-09-12T06:24:16;100214.09;;;42.57;20.29
6349;BME280;3207;42.648;23.406;2022-09-12T06:26:44;100210.66;;;43.34;19.81
6349;BME280;3207;42.648;23.406;2022-09-12T06:29:12;100215.34;;;44.24;19.22
6349;BME280;3207;42.648;23.406;2022-09-12T06:31:40;100224.69;;;44.99;18.57
6349;BME280;3207;42.648;23.406;2022-09-12T06:34:09;100227.13;;;45.63;17.84
6349;BME280;3207;42.648;23.406;2022-09-12T06:36:38;100225.06;;;46.17;17.35
6349;BME280;3207;42.648;23.406;2022-09-12T06:39:07;100232.69;;;46.93;16.36
6349;BME280;3207;42.648;23.406;2022-09-12T06:41:35;100226.16;;;47.53;15.92
6349;BME280;3207;42.648;23.406;2022-09-12T06:44:04;100240.41;;;48.11;15.15
6349;BME280;3207;42.648;23.406;2022-09-12T06:46:31;100240.13;;;48.48;14.89
6349;BME280;3207;42.648;23.406;2022-09-12T06:48:59;100231.41;;;48.65;14.78
6349;BME280;3207;42.648;23.406;2022-09-12T06:51:27;100235.13;;;48.88;14.11
6349;BME280;3207;42.648;23.406;2022-09-12T06:53:54;100231.75;;;49.33;14.07
6349;BME280;3207;42.648;23.406;2022-09-12T06:56:23;100234.59;;;49.98;14.01
6349;BME280;3207;42.648;23.406;2022-09-12T06:58:51;100230.53;;;50.68;13.49
6349;BME280;3207;42.648;23.406;2022-09-12T07:01:30;100229.75;;;51.23;12.86
6349;BME280;3207;42.648;23.406;2022-09-12T07:03:58;100219.94;;;51.74;12.64
6349;BME280;3207;42.648;23.406;2022-09-12T07:06:27;100205.97;;;52.18;12.02
6349;BME280;3207;42.648;23.406;2022-09-12T07:08:56;100223.00;;;52.53;11.91
6349;BME280;3207;42.648;23.406;2022-09-12T07:11:25;100218.28;;;52.61;11.74
6349;BME280;3207;42.648;23.406;2022-09-12T07:13:54;100225.44;;;52.58;12.08
6349;BME280;3207;42.648;23.406;2022-09-12T07:16:23;100220.88;;;53.01;11.72
6349;BME280;3207;42.648;23.406;2022-09-12T07:18:50;100223.34;;;53.17;11.33
6349;BME280;3207;42.648;23.406;2022-09-12T07:21:18;100220.22;;;53.33;11.71
6349;BME280;3207;42.648;23.406;2022-09-12T07:23:45;100230.28;;;53.77;11.32
6349;BME280;3207;42.648;23.406;2022-09-12T07:26:14;100223.53;;;54.13;10.92
6349;BME280;3207;42.648;23.406;2022-09-12T07:28:41;100233.06;;;54.80;11.17
6349;BME280;3207;42.648;23.406;2022-09-12T07:31:10;100237.69;;;55.25;11.00
6349;BME280;3207;42.648;23.406;2022-09-12T07:33:39;100234.63;;;55.64;10.49
6349;BME280;3207;42.648;23.406;2022-09-12T07:36:09;100238.00;;;55.97;10.37
6349;BME280;3207;42.648;23.406;2022-09-12T07:38:37;100240.09;;;56.34;9.80
6349;BME280;3207;42.648;23.406;2022-09-12T07:41:09;100239.19;;;56.47;9.88
6349;BME280;3207;42.648;23.406;2022-09-12T07:43:36;100243.34;;;56.36;9.68
6349;BME280;3207;42.648;23.406;2022-09-12T07:46:03;100244.75;;;56.51;9.77
6349;BME280;3207;42.648;23.406;2022-09-12T07:48:30;100240.53;;;56.73;9.63
6349;BME280;3207;42.648;23.406;2022-09-12T07:50:59;100229.19;;;56.80;9.14
6349;BME280;3207;42.648;23.406;2022-09-12T07:53:29;100237.97;;;56.86;9.69
6349;BME280;3207;42.648;23.406;2022-09-12T07:55:56;100250.66;;;56.67;9.57
6349;BME280;3207;42.648;23.406;2022-09-12T07:58:23;100243.06;;;56.16;9.21
6349;BME280;3207;42.648;23.406;2022-09-12T08:00:50;100247.75;;;55.85;9.43
6349;BME280;3207;42.648;23.406;2022-09-12T08:03:17;100239.03;;;55.69;9.75
6349;BME280;3207;42.648;23.406;2022-09-12T08:05:44;100242.00;;;56.03;9.99
6349;BME280;3207;42.648;23.406;2022-09-12T08:08:12;100240.25;;;56.19;9.81
6349;BME280;3207;42.648;23.406;2022-09-12T08:10:39;100234.56;;;56.68;9.73
6349;BME280;3207;42.648;23.406;2022-09-12T08:13:06;100229.38;;;57.31;9.46
6349;BME280;3207;42.648;23.406;2022-09-12T08:15:34;100247.25;;;57.44;9.02
6349;BME280;3207;42.648;23.406;2022-09-12T08:18:01;100241.88;;;57.26;8.89
6349;BME280;3207;42.648;23.406;2022-09-12T08:20:27;100242.25;;;56.98;9.45
6349;BME280;3207;42.648;23.406;2022-09-12T08:22:54;100250.31;;;57.56;9.44
6349;BME280;3207;42.648;23.406;2022-09-12T08:25:23;100249.78;;;58.15;8.75
6349;BME280;3207;42.648;23.406;2022-09-12T08:27:50;100247.09;;;58.28;8.73
6349;BME280;3207;42.648;23.406;2022-09-12T08:30:17;100245.50;;;57.53;8.89
6349;BME280;3207;42.648;23.406;2022-09-12T08:32:43;100248.31;;;57.27;9.06
6349;BME280;3207;42.648;23.406;2022-09-12T08:35:10;100244.69;;;57.80;8.68
6349;BME280;3207;42.648;23.406;2022-09-12T08:37:37;100252.06;;;57.74;8.10
6349;BME280;3207;42.648;23.406;2022-09-12T08:40:05;100246.31;;;57.27;8.59
6349;BME280;3207;42.648;23.406;2022-09-12T08:42:46;100239.22;;;57.12;8.74
6349;BME280;3207;42.648;23.406;2022-09-12T08:45:19;100230.22;;;57.28;9.02
6349;BME280;3207;42.648;23.406;2022-09-12T08:47:48;100238.16;;;58.10;8.75
6349;BME280;3207;42.648;23.406;2022-09-12T08:50:17;100241.13;;;58.89;8.36
6349;BME280;3207;42.648;23.406;2022-09-12T08:52:56;100248.69;;;59.48;8.25
6349;BME280;3207;42.648;23.406;2022-09-12T08:55:28;100240.06;;;59.87;7.96
6349;BME280;3207;42.648;23.406;2022-09-12T08:57:58;100240.53;;;60.47;7.66
6349;BME280;3207;42.648;23.406;2022-09-12T09:00:32;100248.72;;;60.99;7.26
6349;BME280;3207;42.648;23.406;2022-09-12T09:03:23;100242.31;;;60.70;6.85
6349;BME280;3207;42.648;23.406;2022-09-12T09:06:00;100241.53;;;60.69;7.06
6349;BME280;3207;42.648;23.406;2022-09-12T09:08:37;100230.88;;;60.73;6.97
6349;BME280;3207;42.648;23.406;2022-09-12T09:11:22;100237.28;;;60.78;7.17
6349;BME280;3207;42.648;23.406;2022-09-12T09:14:03;100224.06;;;60.58;6.94
6349;BME280;3207;42.648;23.406;2022-09-12T09:16:55;100219.75;;;60.09;6.97
6349;BME280;3207;42.648;23.406;2022-09-12T09:19:27;100226.56;;;59.79;7.75
6349;BME280;3207;42.648;23.406;2022-09-12T09:21:57;100225.38;;;59.63;7.47
6349;BME280;3207;42.648;23.406;2022-09-12T09:24:27;100218.56;;;59.93;7.00
6349;BME280;3207;42.648;23.406;2022-09-12T09:27:01;100214.91;;;60.25;7.05
6349;BME280;3207;42.648;23.406;2022-09-12T09:29:34;100207.25;;;59.93;7.46
6349;BME280;3207;42.648;23.406;2022-09-12T09:32:08;100199.81;;;59.34;6.98
6349;BME280;3207;42.648;23.406;2022-09-12T09:34:38;100200.75;;;59.12;7.93
6349;BME280;3207;42.648;23.406;2022-09-12T09:37:12;100199.03;;;59.50;7.84
6349;BME280;3207;42.648;23.406;2022-09-12T09:39:50;100203.63;;;59.93;7.06
6349;BME280;3207;42.648;23.406;2022-09-12T09:42:26;100206.25;;;60.16;6.56
6349;BME280;3207;42.648;23.406;2022-09-12T09:44:59;100200.19;;;59.85;7.67
6349;BME280;3207;42.648;23.406;2022-09-12T09:47:28;100195.53;;;59.62;7.61
6349;BME280;3207;42.648;23.406;2022-09-12T09:49:55;100182.44;;;60.01;7.27
6349;BME280;3207;42.648;23.406;2022-09-12T09:52:25;100184.78;;;60.19;7.09
6349;BME280;3207;42.648;23.406;2022-09-12T09:54:56;100184.81;;;60.02;6.73
6349;BME280;3207;42.648;23.406;2022-09-12T09:57:41;100175.09;;;58.67;7.79
6349;BME280;3207;42.648;23.406;2022-09-12T10:00:23;100158.97;;;54.73;8.71
6349;BME280;3207;42.648;23.406;2022-09-12T10:03:06;100149.50;;;53.47;10.01
6349;BME280;3207;42.648;23.406;2022-09-12T10:05:46;100149.06;;;54.51;9.20
6349;BME280;3207;42.648;23.406;2022-09-12T10:08:20;100154.09;;;55.61;8.65
6349;BME280;3207;42.648;23.406;2022-09-12T10:10:55;100143.31;;;52.81;9.83
6349;BME280;3207;42.648;23.406;2022-09-12T10:13:26;100125.91;;;49.88;11.43
6349;BME280;3207;42.648;23.406;2022-09-12T10:15:57;100125.47;;;48.12;12.18
6349;BME280;3207;42.648;23.406;2022-09-12T10:18:36;100121.97;;;46.56;12.79
6349;BME280;3207;42.648;23.406;2022-09-12T10:21:15;100103.81;;;45.37;14.32
6349;BME280;3207;42.648;23.406;2022-09-12T10:23:45;100113.53;;;44.90;14.53
6349;BME280;3207;42.648;23.406;2022-09-12T10:26:15;100114.00;;;45.12;13.73
6349;BME280;3207;42.648;23.406;2022-09-12T10:28:48;100101.94;;;44.55;13.83
6349;BME280;3207;42.648;23.406;2022-09-12T10:31:24;100101.25;;;44.07;14.59
6349;BME280;3207;42.648;23.406;2022-09-12T10:33:55;100087.16;;;43.54;15.21
6349;BME280;3207;42.648;23.406;2022-09-12T10:36:23;100088.53;;;43.30;15.59
6349;BME280;3207;42.648;23.406;2022-09-12T10:38:52;100097.88;;;44.02;14.69
6349;BME280;3207;42.648;23.406;2022-09-12T10:41:19;100082.53;;;43.84;14.89
6349;BME280;3207;42.648;23.406;2022-09-12T10:43:47;100089.13;;;43.53;15.22
6349;BME280;3207;42.648;23.406;2022-09-12T10:46:27;100047.44;;;42.73;15.55
6349;BME280;3207;42.648;23.406;2022-09-12T10:49:22;100084.63;;;43.14;15.21
6349;BME280;3207;42.648;23.406;2022-09-12T10:51:50;100071.41;;;42.82;15.62
6349;BME280;3207;42.648;23.406;2022-09-12T10:54:20;100076.19;;;42.33;15.83
6349;BME280;3207;42.648;23.406;2022-09-12T10:57:10;100073.97;;;42.52;15.98
6349;BME280;3207;42.648;23.406;2022-09-12T11:00:02;100073.50;;;42.76;15.76
6349;BME280;3207;42.648;23.406;2022-09-12T11:02:46;100066.38;;;43.01;15.22
6349;BME280;3207;42.648;23.406;2022-09-12T11:05:21;100069.94;;;43.01;15.26
6349;BME280;3207;42.648;23.406;2022-09-12T11:07:56;100058.59;;;43.20;15.17
6349;BME280;3207;42.648;23.406;2022-09-12T11:10:33;100057.16;;;42.97;15.31
6349;BME280;3207;42.648;23.406;2022-09-12T11:13:14;100056.50;;;42.91;15.44
6349;BME280;3207;42.648;23.406;2022-09-12T11:15:53;99990.22;;;41.84;15.93
6349;BME280;3207;42.648;23.406;2022-09-12T11:18:41;100031.19;;;41.33;16.50
6349;BME280;3207;42.648;23.406;2022-09-12T11:21:27;100049.66;;;40.96;16.70
6349;BME280;3207;42.648;23.406;2022-09-12T11:24:09;100035.34;;;40.27;17.33
6349;BME280;3207;42.648;23.406;2022-09-12T11:27:00;100044.13;;;39.42;18.43
6349;BME280;3207;42.648;23.406;2022-09-12T11:29:45;100037.31;;;38.74;18.72
6349;BME280;3207;42.648;23.406;2022-09-12T11:35:17;100024.63;;;35.89;21.28
6349;BME280;3207;42.648;23.406;2022-09-12T11:37:54;100002.44;;;34.96;22.14
6349;BME280;3207;42.648;23.406;2022-09-12T11:40:28;100005.84;;;33.73;23.48
6349;BME280;3207;42.648;23.406;2022-09-12T11:43:01;100032.19;;;33.36;24.73
6349;BME280;3207;42.648;23.406;2022-09-12T11:45:33;100034.97;;;32.82;24.84
6349;BME280;3207;42.648;23.406;2022-09-12T11:48:06;100034.13;;;32.28;25.74
6349;BME280;3207;42.648;23.406;2022-09-12T11:50:39;100029.28;;;31.91;26.61
6349;BME280;3207;42.648;23.406;2022-09-12T11:53:11;100024.50;;;31.60;26.68
6349;BME280;3207;42.648;23.406;2022-09-12T11:55:48;100024.22;;;31.56;26.25
6349;BME280;3207;42.648;23.406;2022-09-12T11:58:21;100019.69;;;31.62;26.21
6349;BME280;3207;42.648;23.406;2022-09-12T12:00:51;100031.84;;;31.43;26.19
6349;BME280;3207;42.648;23.406;2022-09-12T12:03:26;100015.78;;;31.03;26.80
6349;BME280;3207;42.648;23.406;2022-09-12T12:06:00;100021.19;;;31.03;27.97
6349;BME280;3207;42.648;23.406;2022-09-12T12:08:29;100015.31;;;31.22;26.87
6349;BME280;3207;42.648;23.406;2022-09-12T12:10:58;100004.63;;;31.49;26.81
6349;BME280;3207;42.648;23.406;2022-09-12T12:13:27;100001.28;;;31.25;26.47
6349;BME280;3207;42.648;23.406;2022-09-12T12:15:57;100009.69;;;30.96;27.66
6349;BME280;3207;42.648;23.406;2022-09-12T12:18:26;99987.34;;;30.67;26.95
6349;BME280;3207;42.648;23.406;2022-09-12T12:20:54;100003.13;;;30.75;27.25
6349;BME280;3207;42.648;23.406;2022-09-12T12:23:25;99991.97;;;30.54;27.99
6349;BME280;3207;42.648;23.406;2022-09-12T12:25:54;99986.22;;;30.79;27.35
6349;BME280;3207;42.648;23.406;2022-09-12T12:28:59;99988.19;;;31.01;27.52
6349;BME280;3207;42.648;23.406;2022-09-12T12:31:25;99986.88;;;31.03;27.48
6349;BME280;3207;42.648;23.406;2022-09-12T12:34:18;99975.66;;;31.28;27.11
6349;BME280;3207;42.648;23.406;2022-09-12T12:36:46;99976.97;;;31.25;26.87
6349;BME280;3207;42.648;23.406;2022-09-12T12:45:58;99984.50;;;30.90;27.02
6349;BME280;3207;42.648;23.406;2022-09-12T12:48:29;99975.25;;;30.86;27.50
6349;BME280;3207;42.648;23.406;2022-09-12T12:54:03;99964.88;;;31.11;26.50
6349;BME280;3207;42.648;23.406;2022-09-12T12:56:37;99980.53;;;31.09;26.51
6349;BME280;3207;42.648;23.406;2022-09-12T12:59:15;99973.69;;;30.90;26.72
6349;BME280;3207;42.648;23.406;2022-09-12T13:01:46;99962.31;;;30.88;27.14
6349;BME280;3207;42.648;23.406;2022-09-12T13:04:16;99965.84;;;30.88;26.55
6349;BME280;3207;42.648;23.406;2022-09-12T13:06:45;99964.22;;;31.04;26.91
6349;BME280;3207;42.648;23.406;2022-09-12T13:09:23;99962.00;;;31.35;26.55
6349;BME280;3207;42.648;23.406;2022-09-12T13:12:00;99966.97;;;31.26;26.98
6349;BME280;3207;42.648;23.406;2022-09-12T13:14:46;99959.06;;;31.19;26.98
6349;BME280;3207;42.648;23.406;2022-09-12T13:17:19;99948.31;;;31.08;26.67
6349;BME280;3207;42.648;23.406;2022-09-12T13:19:48;99943.41;;;31.05;27.03
6349;BME280;3207;42.648;23.406;2022-09-12T13:22:21;99936.69;;;31.07;27.78
6349;BME280;3207;42.648;23.406;2022-09-12T13:24:48;99944.34;;;31.10;28.30
6349;BME280;3207;42.648;23.406;2022-09-12T13:27:18;99938.69;;;31.12;28.25
6349;BME280;3207;42.648;23.406;2022-09-12T13:29:45;99938.84;;;30.88;28.34
6349;BME280;3207;42.648;23.406;2022-09-12T13:32:12;99907.63;;;30.47;28.75
6349;BME280;3207;42.648;23.406;2022-09-12T13:34:54;99922.00;;;30.36;28.64
6349;BME280;3207;42.648;23.406;2022-09-12T13:37:37;99923.47;;;30.27;28.86
6349;BME280;3207;42.648;23.406;2022-09-12T13:40:21;99916.03;;;30.34;29.09